KB7DZR Weather Reports


Display with metric or nautical units.
time (UTC)temp
F
wind
direction
speed
MPH
gust
MPH
rain 1hr
in
rain 24hr
in
rain mn
in
humidity
%
barometer
mb
20210916110004 37 197 0.0 0.0 0.00 0.00 0.00 59 1018.4
20210916105004 37 197 0.0 0.0 0.00 0.00 0.00 59 1018.1
20210916104503 37 197 0.0 0.0 0.00 0.00 0.00 59 1018.1
20210916103004 38 197 0.0 0.0 0.00 0.00 0.00 58 1018.0
20210916102504 38 197 0.0 0.0 0.00 0.00 0.00 57 1018.1
20210916100004 39 198 0.0 3.0 0.00 0.00 0.00 57 1017.7
20210916090504 41 282 0.0 0.0 0.00 0.00 0.00 52 1017.4
20210916090004 41 282 0.0 2.0 0.00 0.00 0.00 52 1017.3
20210916084004 41 311 0.0 0.0 0.00 0.00 0.00 51 1017.3
20210916081004 43 311 0.0 0.0 0.00 0.00 0.00 48 1017.3
20210916075504 44 311 0.0 0.0 0.00 0.00 0.00 48 1017.1
20210916075004 44 311 0.0 2.0 0.00 0.00 0.00 48 1017.0
20210916074504 44 305 0.0 0.0 0.00 0.00 0.00 48 1017.0
20210916070504 46 303 0.0 0.0 0.00 0.00 0.00 44 1016.6
20210916070004 47 303 0.0 0.0 0.00 0.00 0.00 43 1016.6
20210916065004 48 303 0.0 0.0 0.00 0.00 0.00 41 1016.5
20210916064504 49 303 0.0 0.0 0.00 0.00 0.00 41 1016.5
20210916064004 49 303 0.0 0.0 0.00 0.00 0.00 40 1016.4
20210916062504 49 300 3.0 8.0 0.00 0.00 0.00 40 1016.2
20210916061505 50 341 0.0 3.0 0.00 0.00 0.00 40 1016.2
20210916060504 50 346 2.0 7.0 0.00 0.00 0.00 39 1016.1
20210916060004 50 322 1.0 5.0 0.00 0.00 0.00 38 1016.1
20210916055004 52 349 1.0 3.0 0.00 0.00 0.00 34 1016.0
20210916054504 53 334 2.0 6.0 0.00 0.00 0.00 31 1016.0
20210916053005 53 318 9.0 16.0 0.00 0.00 0.00 26 1015.8
20210916052005 54 315 6.0 12.0 0.00 0.00 0.00 22 1015.7
20210916051505 55 317 9.0 14.0 0.00 0.00 0.00 21 1015.7
20210916051005 55 311 6.0 13.0 0.00 0.00 0.00 20 1015.6
20210916045504 54 293 2.0 6.0 0.00 0.00 0.00 26 1015.6
20210916045004 54 279 2.0 3.0 0.00 0.00 0.00 25 1015.6
20210916043505 53 159 0.0 0.0 0.00 0.00 0.00 27 1015.6
20210916043005 53 159 0.0 0.0 0.00 0.00 0.00 28 1015.5
20210916041504 52 158 0.0 2.0 0.00 0.00 0.00 32 1015.6
20210916040004 53 155 0.0 0.0 0.00 0.00 0.00 30 1015.7
20210916034505 54 155 0.0 0.0 0.00 0.00 0.00 26 1015.6
20210916034005 54 155 0.0 0.0 0.00 0.00 0.00 26 1015.6
20210916033005 55 347 0.0 3.0 0.00 0.00 0.00 25 1015.5
20210916032005 56 347 0.0 3.0 0.00 0.00 0.00 23 1015.5
20210916031505 56 301 0.0 5.0 0.00 0.00 0.00 21 1015.5
20210916025005 57 290 1.0 6.0 0.00 0.00 0.00 20 1015.3
20210916024506 57 297 1.0 8.0 0.00 0.00 0.00 21 1015.3
20210916024005 57 308 1.0 3.0 0.00 0.00 0.00 20 1015.2
20210916015504 60 326 0.0 3.0 0.00 0.00 0.00 18 1015.0
20210916015005 61 344 1.0 12.0 0.00 0.00 0.00 18 1014.8
20210916014004 62 326 2.0 12.0 0.00 0.00 0.00 17 1014.8
20210916013505 62 338 1.0 5.0 0.00 0.00 0.00 18 1014.8
20210916013004 63 344 2.0 10.0 0.00 0.00 0.00 18 1014.8
20210916012505 63 341 3.0 8.0 0.00 0.00 0.00 20 1014.8
20210916011504 65 349 7.0 17.0 0.00 0.00 0.00 20 1014.7
20210916011005 65 343 5.0 12.0 0.00 0.00 0.00 20 1014.7
20210916010505 66 340 6.0 13.0 0.00 0.00 0.00 20 1014.6
20210916005004 66 343 5.0 16.0 0.00 0.00 0.00 20 1014.7
20210916002504 68 343 9.0 18.0 0.00 0.00 0.00 22 1014.5
20210916002005 68 339 8.0 14.0 0.00 0.00 0.00 22 1014.5
20210916000006 70 320 12.0 23.0 0.00 0.00 0.00 20 1014.3
20210915235005 71 331 9.0 16.0 0.00 0.00 0.00 19 1014.3
20210915234005 71 336 13.0 24.0 0.00 0.00 0.00 18 1014.2
20210915233505 70 320 18.0 26.0 0.00 0.00 0.00 18 1014.2
20210915232504 70 315 20.0 26.0 0.00 0.00 0.00 17 1014.1
20210915232004 71 318 15.0 26.0 0.00 0.00 0.00 17 1014.3
20210915230005 72 348 7.0 14.0 0.00 0.00 0.00 19 1014.2
20210915225005 73 342 6.0 17.0 0.00 0.00 0.00 19 1014.2
20210915224004 73 339 8.0 20.0 0.00 0.00 0.00 17 1014.2
20210915223005 74 315 16.0 26.0 0.00 0.00 0.00 17 1014.2
20210915222505 74 301 14.0 24.0 0.00 0.00 0.00 16 1014.1
20210915220005 74 353 5.0 20.0 0.00 0.00 0.00 21 1014.3
20210915214004 74 342 5.0 13.0 0.00 0.00 0.00 25 1014.5
20210915213006 73 356 8.0 16.0 0.00 0.00 0.00 26 1014.6
20210915212005 73 301 11.0 22.0 0.00 0.00 0.00 25 1014.7
20210915210505 73 331 10.0 18.0 0.00 0.00 0.00 26 1014.7
20210915210004 73 338 3.0 13.0 0.00 0.00 0.00 30 1014.7
20210915205005 71 249 2.0 8.0 0.00 0.00 0.00 29 1015.0
20210915203005 71 317 10.0 14.0 0.00 0.00 0.00 26 1015.1
20210915201505 70 266 2.0 9.0 0.00 0.00 0.00 35 1015.4
20210915201005 70 210 2.0 8.0 0.00 0.00 0.00 35 1015.4
20210915200505 69 210 1.0 3.0 0.00 0.00 0.00 37 1015.5
20210915194505 67 309 1.0 3.0 0.00 0.00 0.00 40 1015.7
20210915194005 67 310 0.0 0.0 0.00 0.00 0.00 39 1015.8
20210915192504 67 310 0.0 2.0 0.00 0.00 0.00 39 1015.8
20210915191005 67 313 0.0 0.0 0.00 0.00 0.00 40 1016.1
20210915185506 66 313 0.0 1.0 0.00 0.00 0.00 40 1016.1
20210915185005 66 314 2.0 5.0 0.00 0.00 0.00 42 1016.1
20210915182504 65 69 0.0 8.0 0.00 0.00 0.00 43 1016.4
20210915182004 65 103 2.0 7.0 0.00 0.00 0.00 41 1016.4
20210915181504 65 103 0.0 2.0 0.00 0.00 0.00 43 1016.4
20210915181005 65 103 0.0 3.0 0.00 0.00 0.00 43 1016.4
20210915174504 63 103 0.0 1.0 0.00 0.00 0.00 45 1016.5
20210915173005 63 103 0.0 2.0 0.00 0.00 0.00 49 1016.6
20210915171504 62 103 0.0 2.0 0.00 0.00 0.00 53 1016.7
20210915170005 62 103 1.0 3.0 0.00 0.00 0.00 54 1016.9
20210915165505 62 104 0.0 3.0 0.00 0.00 0.00 55 1016.9
20210915165005 62 104 1.0 3.0 0.00 0.00 0.00 56 1017.0
20210915164505 61 106 1.0 3.0 0.00 0.00 0.00 56 1017.0
20210915164005 61 106 0.0 5.0 0.00 0.00 0.00 57 1017.0
20210915163505 60 106 0.0 3.0 0.00 0.00 0.00 59 1017.0
20210915163005 60 106 0.0 2.0 0.00 0.00 0.00 59 1017.0
20210915162505 59 106 1.0 5.0 0.00 0.00 0.00 60 1017.0
20210915162004 58 111 1.0 5.0 0.00 0.00 0.00 61 1017.0
20210915160504 57 111 0.0 0.0 0.00 0.00 0.00 61 1017.2
20210915155505 57 111 3.0 12.0 0.00 0.00 0.00 61 1017.2
20210915155005 57 114 1.0 12.0 0.00 0.00 0.00 62 1017.1
20210915154505 56 121 5.0 10.0 0.00 0.00 0.00 65 1017.2
20210915153504 52 148 2.0 6.0 0.00 0.00 0.00 69 1017.3
20210915153005 51 158 0.0 0.0 0.00 0.00 0.00 69 1017.4
20210915152504 50 158 0.0 0.0 0.00 0.00 0.00 68 1017.4
20210915151505 49 158 0.0 0.0 0.00 0.00 0.00 67 1017.7
20210915150005 47 160 0.0 0.0 0.00 0.00 0.00 64 1017.8
20210915145504 47 160 0.0 0.0 0.00 0.00 0.00 65 1017.8
20210915145005 47 160 0.0 0.0 0.00 0.00 0.00 66 1017.8
20210915144005 46 160 0.0 0.0 0.00 0.00 0.00 67 1017.8
20210915143505 45 161 0.0 0.0 0.00 0.00 0.00 67 1017.9
20210915141504 41 167 0.0 0.0 0.00 0.00 0.00 72 1017.9
20210915135004 39 167 0.0 0.0 0.00 0.00 0.00 71 1017.8
20210915134505 39 167 0.0 0.0 0.00 0.00 0.00 70 1017.9
20210915132505 38 167 0.0 0.0 0.00 0.00 0.00 70 1017.7
20210915132005 38 167 4.0 7.0 0.00 0.00 0.00 70 1017.6
20210915131004 37 148 2.0 3.0 0.00 0.00 0.00 70 1017.5
20210915130005 37 148 0.0 0.0 0.00 0.00 0.00 69 1017.4
20210915124504 37 148 0.0 1.0 0.00 0.00 0.00 68 1017.3
20210915123505 38 148 0.0 0.0 0.00 0.00 0.00 68 1017.2
20210915120004 38 150 0.0 0.0 0.00 0.00 0.00 69 1016.7
20210915114504 39 143 0.0 0.0 0.00 0.00 0.00 66 1016.7
20210915113505 39 142 0.0 0.0 0.00 0.00 0.00 66 1016.7
20210915113004 40 142 0.0 0.0 0.00 0.00 0.00 65 1016.8
20210915112505 40 143 0.0 0.0 0.00 0.00 0.00 65 1016.8